createdAt,value
2017-10-23T00:01:23.052Z,7.50
2017-10-23T00:03:50.608Z,7.60
2017-10-23T00:06:18.140Z,7.50
2017-10-23T00:08:45.704Z,7.60
2017-10-23T00:11:13.239Z,7.50
2017-10-23T00:13:40.788Z,7.60
2017-10-23T00:16:08.316Z,7.60
2017-10-23T00:18:36.640Z,7.50
2017-10-23T00:21:04.166Z,7.50
2017-10-23T00:23:31.720Z,7.60
2017-10-23T00:26:00.013Z,7.50
2017-10-23T00:28:27.574Z,7.50
2017-10-23T00:30:55.112Z,7.50
2017-10-23T00:33:36.459Z,7.50
2017-10-23T00:36:03.996Z,7.50
2017-10-23T00:38:31.570Z,7.50
2017-10-23T00:40:59.099Z,7.50
2017-10-23T00:43:26.664Z,7.50
2017-10-23T00:45:54.193Z,7.50
2017-10-23T00:48:22.520Z,7.50
2017-10-23T00:50:50.832Z,7.50
2017-10-23T00:53:18.401Z,7.50
2017-10-23T00:55:46.708Z,7.50
2017-10-23T00:58:14.271Z,7.50
2017-10-23T01:00:41.800Z,7.50
2017-10-23T01:03:10.124Z,7.50
2017-10-23T01:05:37.658Z,7.50
2017-10-23T01:08:05.211Z,7.50
2017-10-23T01:10:33.503Z,7.60
2017-10-23T01:13:01.064Z,7.60
2017-10-23T01:15:28.591Z,7.70
2017-10-23T01:17:56.154Z,7.60
2017-10-23T01:20:24.453Z,7.60
2017-10-23T01:22:52.011Z,7.60
2017-10-23T01:25:19.544Z,7.50
2017-10-23T01:27:47.104Z,7.60
2017-10-23T01:30:14.636Z,7.60
2017-10-23T01:32:42.198Z,7.60
2017-10-23T01:35:11.239Z,7.60
2017-10-23T01:37:39.555Z,7.60
2017-10-23T01:40:07.092Z,7.60
2017-10-23T01:42:34.651Z,7.60
2017-10-23T01:45:02.185Z,7.70
2017-10-23T01:47:30.510Z,7.60
2017-10-23T01:49:58.043Z,7.50
2017-10-23T01:52:25.596Z,7.50
2017-10-23T01:54:53.134Z,7.50
2017-10-23T01:57:21.459Z,7.60
2017-10-23T01:59:48.995Z,7.60
2017-10-23T02:02:16.556Z,7.50
2017-10-23T02:04:44.087Z,7.60
2017-10-23T02:07:11.645Z,7.60
2017-10-23T02:09:39.179Z,7.60
2017-10-23T02:12:07.500Z,7.60
2017-10-23T02:14:35.794Z,7.60
2017-10-23T02:17:03.353Z,7.60
2017-10-23T02:19:30.882Z,7.60
2017-10-23T02:21:59.226Z,7.60
2017-10-23T02:24:26.761Z,7.50
2017-10-23T02:26:54.299Z,7.50
2017-10-23T02:29:21.872Z,7.50
2017-10-23T02:31:49.402Z,7.50
2017-10-23T02:34:17.726Z,7.40
2017-10-23T02:36:45.263Z,7.30
2017-10-23T02:39:12.815Z,7.30
2017-10-23T02:41:41.109Z,7.20
2017-10-23T02:44:08.671Z,7.20
2017-10-23T02:46:36.199Z,7.10
2017-10-23T02:49:04.523Z,7.20
2017-10-23T02:51:32.057Z,7.20
2017-10-23T02:53:59.615Z,7.20
2017-10-23T02:56:27.157Z,7.20
2017-10-23T02:58:55.477Z,7.30
2017-10-23T03:01:23.008Z,7.30
2017-10-23T03:03:51.327Z,7.30
2017-10-23T03:06:18.854Z,7.30
2017-10-23T03:08:46.420Z,7.30
2017-10-23T03:11:13.969Z,7.20
2017-10-23T03:13:41.527Z,7.20
2017-10-23T03:16:09.055Z,7.20
2017-10-23T03:18:36.610Z,7.20
2017-10-23T03:21:04.146Z,7.30
2017-10-23T03:23:32.458Z,7.30
2017-10-23T03:26:00.768Z,7.30
2017-10-23T03:28:28.335Z,7.30
2017-10-23T03:30:55.864Z,7.40
2017-10-23T03:33:24.199Z,7.40
2017-10-23T03:35:51.735Z,7.40
2017-10-23T03:38:19.286Z,7.40
2017-10-23T03:40:46.819Z,7.40
2017-10-23T03:43:15.139Z,7.40
2017-10-23T03:45:42.680Z,7.40
2017-10-23T03:48:10.235Z,7.30
2017-10-23T03:50:37.769Z,7.40
2017-10-23T03:53:06.106Z,7.30
2017-10-23T03:55:33.876Z,7.40
2017-10-23T03:58:01.477Z,7.40
2017-10-23T04:00:29.770Z,7.40
2017-10-23T04:02:57.331Z,7.50
2017-10-23T04:05:24.871Z,7.40
2017-10-23T04:07:53.193Z,7.40
2017-10-23T04:10:20.732Z,7.40
2017-10-23T04:12:48.287Z,7.40
2017-10-23T04:15:15.964Z,7.40
2017-10-23T04:17:43.519Z,7.40
2017-10-23T04:20:11.059Z,7.40
2017-10-23T04:22:39.381Z,7.40
2017-10-23T04:25:06.923Z,7.40
2017-10-23T04:27:34.480Z,7.40
2017-10-23T04:30:02.015Z,7.40
2017-10-23T04:32:30.336Z,7.50
2017-10-23T04:34:57.867Z,7.40
2017-10-23T04:37:25.399Z,7.50
2017-10-23T04:39:53.733Z,7.50
2017-10-23T04:42:21.269Z,7.50
2017-10-23T04:44:48.831Z,7.60
2017-10-23T04:47:16.368Z,7.60
2017-10-23T04:49:44.691Z,7.70
2017-10-23T04:52:12.219Z,7.60
2017-10-23T04:54:39.775Z,7.70
2017-10-23T04:57:07.311Z,7.70
2017-10-23T04:59:34.865Z,7.80
2017-10-23T05:02:02.395Z,7.70
2017-10-23T05:04:29.948Z,7.70
2017-10-23T05:06:57.475Z,7.70
2017-10-23T05:09:25.024Z,7.70
2017-10-23T05:11:53.330Z,7.70
2017-10-23T05:14:20.899Z,7.70
2017-10-23T05:16:48.433Z,7.80
2017-10-23T05:19:16.005Z,7.80
2017-10-23T05:21:43.660Z,7.80
2017-10-23T05:24:12.136Z,7.70
2017-10-23T05:26:39.751Z,7.70
2017-10-23T05:29:07.316Z,7.70
2017-10-23T05:31:34.856Z,7.80
2017-10-23T05:34:02.416Z,7.70
2017-10-23T05:36:30.274Z,7.80
2017-10-23T05:38:57.996Z,7.80
2017-10-23T05:41:26.286Z,7.90
2017-10-23T05:43:53.831Z,7.90
2017-10-23T05:46:22.215Z,7.90
2017-10-23T05:48:50.476Z,7.80
2017-10-23T05:51:19.322Z,7.80
2017-10-23T05:53:48.187Z,7.70
2017-10-23T05:56:15.716Z,7.70
2017-10-23T05:58:43.275Z,7.70
2017-10-23T06:01:11.582Z,7.60
2017-10-23T06:03:39.147Z,7.60
2017-10-23T06:06:06.671Z,7.50
2017-10-23T06:08:35.014Z,7.30
2017-10-23T06:11:02.543Z,7.20
2017-10-23T06:13:30.102Z,7.20
2017-10-23T06:15:57.631Z,7.30
2017-10-23T06:18:25.964Z,7.40
2017-10-23T06:20:53.499Z,7.40
2017-10-23T06:23:21.055Z,7.40
2017-10-23T06:25:48.591Z,7.40
2017-10-23T06:28:16.919Z,7.30
2017-10-23T06:30:44.460Z,7.30
2017-10-23T06:33:12.011Z,7.30
2017-10-23T06:35:39.545Z,7.30
2017-10-23T06:38:07.864Z,7.40
2017-10-23T06:40:35.396Z,7.40
2017-10-23T06:43:03.721Z,7.60
2017-10-23T06:45:31.265Z,7.50
2017-10-23T06:47:58.792Z,7.60
2017-10-23T06:50:27.139Z,7.70
2017-10-23T06:52:54.675Z,7.70
2017-10-23T06:55:22.226Z,7.80
2017-10-23T06:57:49.761Z,7.80
2017-10-23T07:00:17.324Z,7.70
2017-10-23T07:02:44.851Z,7.80
2017-10-23T07:05:13.177Z,7.80
2017-10-23T07:07:40.716Z,7.70
2017-10-23T07:10:08.274Z,7.80
2017-10-23T07:12:35.807Z,7.80
2017-10-23T07:15:04.133Z,7.90
2017-10-23T07:17:31.658Z,7.90
2017-10-23T07:19:59.987Z,8.00
2017-10-23T07:22:27.535Z,8.00
2017-10-23T07:24:55.093Z,8.10
2017-10-23T07:27:22.622Z,8.20
2017-10-23T07:29:50.177Z,8.20
2017-10-23T07:32:17.735Z,8.20
2017-10-23T07:34:46.056Z,8.40
2017-10-23T07:37:13.582Z,8.40
2017-10-23T07:39:41.139Z,8.50
2017-10-23T07:42:08.688Z,8.60
2017-10-23T07:44:37.025Z,8.60
2017-10-23T07:47:04.555Z,8.60
2017-10-23T07:49:32.105Z,8.80
2017-10-23T07:51:59.643Z,8.90
2017-10-23T07:54:27.967Z,8.90
2017-10-23T07:56:55.499Z,8.90
2017-10-23T07:59:23.064Z,8.90
2017-10-23T08:01:50.592Z,8.80
2017-10-23T08:04:18.919Z,8.70
2017-10-23T08:06:46.457Z,8.70
2017-10-23T08:09:14.017Z,8.90
2017-10-23T08:11:41.547Z,8.90
2017-10-23T08:14:09.877Z,8.90
2017-10-23T08:16:37.414Z,8.90
2017-10-23T08:19:04.970Z,8.80
2017-10-23T08:21:32.499Z,8.90
2017-10-23T08:24:00.059Z,8.90
2017-10-23T08:26:27.595Z,9.00
2017-10-23T08:28:55.152Z,9.20
2017-10-23T08:31:22.676Z,9.20
2017-10-23T08:33:50.250Z,9.20
2017-10-23T08:36:17.771Z,9.20
2017-10-23T08:38:46.093Z,9.10
2017-10-23T08:41:13.623Z,9.10
2017-10-23T08:43:41.183Z,9.10
2017-10-23T08:46:08.716Z,9.20
2017-10-23T08:48:37.054Z,9.10
2017-10-23T08:51:04.592Z,9.10
2017-10-23T08:53:32.123Z,9.20
2017-10-23T08:56:00.444Z,9.30
2017-10-23T08:58:27.983Z,9.30
2017-10-23T09:00:55.559Z,9.40
2017-10-23T09:03:23.096Z,9.50
2017-10-23T09:05:50.652Z,9.50
2017-10-23T09:08:18.195Z,9.60
2017-10-23T09:10:46.524Z,9.90
2017-10-23T09:13:14.065Z,9.90
2017-10-23T09:15:41.615Z,10.00
2017-10-23T09:18:09.147Z,10.00
2017-10-23T09:20:37.481Z,10.10
2017-10-23T09:23:05.022Z,10.10
2017-10-23T09:25:32.593Z,10.10
2017-10-23T09:28:00.138Z,10.00
2017-10-23T09:30:27.691Z,10.10
2017-10-23T09:32:55.220Z,10.20
2017-10-23T09:35:22.794Z,10.10
2017-10-23T09:37:51.094Z,10.20
2017-10-23T09:40:18.659Z,10.20
2017-10-23T09:42:46.194Z,10.20
2017-10-23T09:45:14.518Z,10.20
2017-10-23T09:47:42.053Z,10.20
2017-10-23T09:50:09.616Z,10.00
2017-10-23T09:52:37.170Z,10.10
2017-10-23T09:55:04.732Z,10.20
2017-10-23T09:57:32.273Z,10.10
2017-10-23T10:00:00.604Z,10.20
2017-10-23T10:02:28.911Z,10.40
2017-10-23T10:04:57.242Z,10.60
2017-10-23T10:07:24.785Z,10.60
2017-10-23T10:09:52.344Z,10.50
2017-10-23T10:12:19.901Z,10.40
2017-10-23T10:14:47.456Z,10.50
2017-10-23T10:17:14.991Z,10.30
2017-10-23T10:19:43.316Z,10.50
2017-10-23T10:22:10.851Z,10.50
2017-10-23T10:24:38.415Z,10.60
2017-10-23T10:27:05.956Z,10.60
2017-10-23T10:29:34.285Z,10.50
2017-10-23T10:32:02.580Z,10.30
2017-10-23T10:34:30.144Z,10.30
2017-10-23T10:36:57.679Z,10.30
2017-10-23T10:39:25.240Z,10.40
2017-10-23T10:41:52.789Z,10.30
2017-10-23T10:44:20.357Z,10.30
2017-10-23T10:46:47.888Z,10.40
2017-10-23T10:49:15.443Z,10.30
2017-10-23T10:51:42.991Z,10.40
2017-10-23T10:54:11.297Z,10.70
2017-10-23T10:56:38.859Z,10.60
2017-10-23T10:59:06.400Z,10.80
2017-10-23T11:01:33.960Z,10.80
2017-10-23T11:04:01.500Z,10.80
2017-10-23T11:06:29.835Z,11.00
2017-10-23T11:08:57.371Z,11.00
2017-10-23T11:11:24.928Z,11.10
2017-10-23T11:13:52.462Z,11.30
2017-10-23T11:16:20.779Z,11.40
2017-10-23T11:18:48.308Z,11.30
2017-10-23T11:21:15.859Z,11.40
2017-10-23T11:23:44.159Z,11.50
2017-10-23T11:26:11.708Z,11.50
2017-10-23T11:28:39.239Z,11.50
2017-10-23T11:31:06.804Z,11.30
2017-10-23T11:33:35.114Z,11.40
2017-10-23T11:36:02.672Z,11.40
2017-10-23T11:38:30.204Z,11.30
2017-10-23T11:40:58.529Z,10.90
2017-10-23T11:43:26.073Z,10.90
2017-10-23T11:45:53.631Z,10.90
2017-10-23T11:48:21.168Z,10.70
2017-10-23T11:50:49.486Z,10.50
2017-10-23T11:53:17.019Z,10.50
2017-10-23T11:55:44.585Z,10.50
2017-10-23T11:58:12.115Z,10.60
2017-10-23T12:00:40.455Z,10.40
2017-10-23T12:03:07.988Z,10.40
2017-10-23T12:05:35.539Z,10.50
2017-10-23T12:08:03.071Z,10.60
2017-10-23T12:10:31.400Z,10.80
2017-10-23T12:12:58.933Z,10.80
2017-10-23T12:15:26.510Z,10.80
2017-10-23T12:17:54.038Z,10.80
2017-10-23T12:20:22.366Z,10.90
2017-10-23T12:22:49.903Z,10.90
2017-10-23T12:25:17.451Z,10.80
2017-10-23T12:27:44.977Z,10.70
2017-10-23T12:30:12.531Z,10.60
2017-10-23T12:32:40.068Z,10.60
2017-10-23T12:35:07.623Z,10.50
2017-10-23T12:37:35.160Z,10.40
2017-10-23T12:40:02.734Z,10.20
2017-10-23T12:42:30.266Z,10.20
2017-10-23T12:44:57.832Z,10.20
2017-10-23T12:47:25.372Z,10.20
2017-10-23T12:49:53.691Z,10.10
2017-10-23T12:52:21.231Z,10.10
2017-10-23T12:54:48.769Z,10.10
2017-10-23T12:57:17.095Z,10.10
2017-10-23T12:59:44.628Z,10.10
2017-10-23T13:02:12.191Z,10.10
2017-10-23T13:04:39.739Z,10.00
2017-10-23T13:07:07.300Z,9.90
2017-10-23T13:09:34.836Z,9.90
2017-10-23T13:12:03.178Z,9.70
2017-10-23T13:14:30.705Z,9.70
2017-10-23T13:16:58.262Z,9.70
2017-10-23T13:19:25.796Z,9.60
2017-10-23T13:21:54.115Z,9.60
2017-10-23T13:24:21.647Z,9.50
2017-10-23T13:26:49.204Z,9.50
2017-10-23T13:29:17.502Z,9.50
2017-10-23T13:31:45.056Z,9.50
2017-10-23T13:34:12.587Z,9.50
2017-10-23T13:36:40.923Z,9.60
2017-10-23T13:39:08.451Z,9.50
2017-10-23T13:41:36.004Z,9.60
2017-10-23T13:44:03.534Z,9.50
2017-10-23T13:46:31.098Z,9.50
2017-10-23T13:48:58.629Z,9.50
2017-10-23T13:51:26.186Z,9.60
2017-10-23T13:53:53.720Z,9.60
2017-10-23T13:56:21.281Z,9.60
2017-10-23T13:58:48.810Z,9.70
2017-10-23T14:01:17.125Z,9.60
2017-10-23T14:03:44.659Z,9.60
2017-10-23T14:06:12.218Z,9.70
2017-10-23T14:08:39.751Z,9.70
2017-10-23T14:11:08.081Z,9.80
2017-10-23T14:13:35.624Z,9.80
2017-10-23T14:16:03.171Z,9.70
2017-10-23T14:18:30.702Z,9.70
2017-10-23T14:20:58.258Z,9.70
2017-10-23T14:23:25.784Z,9.60
2017-10-23T14:25:53.350Z,9.60
2017-10-23T14:28:20.880Z,9.70
2017-10-23T14:30:48.430Z,9.70
2017-10-23T14:33:15.965Z,9.70
2017-10-23T14:35:44.295Z,9.70
2017-10-23T14:38:11.832Z,9.70
2017-10-23T14:40:39.395Z,9.70
2017-10-23T14:43:06.934Z,9.70
2017-10-23T14:45:35.254Z,9.70
2017-10-23T14:48:02.787Z,9.70
2017-10-23T14:50:30.335Z,9.80
2017-10-23T14:52:57.904Z,9.70
2017-10-23T14:55:25.418Z,9.70
2017-10-23T14:57:52.975Z,9.80
2017-10-23T15:00:20.505Z,9.80
2017-10-23T15:02:48.071Z,9.70
2017-10-23T15:05:15.607Z,9.70
2017-10-23T15:07:43.158Z,9.70
2017-10-23T15:10:10.690Z,9.70
2017-10-23T15:12:38.243Z,9.80
2017-10-23T15:15:05.782Z,9.70
2017-10-23T15:17:33.343Z,9.70
2017-10-23T15:20:00.884Z,9.70
2017-10-23T15:22:28.444Z,9.70
2017-10-23T15:24:55.980Z,9.70
2017-10-23T15:27:23.540Z,9.70
2017-10-23T15:29:51.072Z,9.70
2017-10-23T15:32:19.390Z,9.80
2017-10-23T15:34:46.915Z,9.80
2017-10-23T15:37:15.231Z,9.80
2017-10-23T15:39:42.776Z,9.80
2017-10-23T15:42:10.335Z,9.80
2017-10-23T15:44:37.875Z,9.80
2017-10-23T15:47:06.194Z,9.80
2017-10-23T15:49:33.746Z,9.80
2017-10-23T15:52:01.302Z,9.80
2017-10-23T15:54:28.834Z,9.80
2017-10-23T15:56:57.152Z,9.80
2017-10-23T15:59:24.702Z,9.80
2017-10-23T16:01:52.275Z,9.70
2017-10-23T16:04:19.812Z,9.70
2017-10-23T16:06:47.376Z,9.80
2017-10-23T16:09:14.916Z,9.80
2017-10-23T16:11:42.479Z,9.80
2017-10-23T16:14:10.015Z,9.80
2017-10-23T16:16:37.585Z,9.80
2017-10-23T16:19:05.895Z,9.80
2017-10-23T16:21:33.442Z,9.80
2017-10-23T16:24:00.971Z,9.80
2017-10-23T16:26:28.528Z,9.80
2017-10-23T16:28:56.065Z,9.80
2017-10-23T16:31:23.627Z,9.80
2017-10-23T16:33:51.175Z,9.90
2017-10-23T16:36:18.740Z,9.90
2017-10-23T16:38:46.282Z,9.90
2017-10-23T16:41:13.826Z,9.90
2017-10-23T16:43:41.384Z,9.80
2017-10-23T16:46:08.917Z,9.80
2017-10-23T16:48:37.306Z,9.90
2017-10-23T16:51:05.617Z,10.00
2017-10-23T16:53:33.187Z,10.00
2017-10-23T16:56:00.720Z,10.00
2017-10-23T16:58:28.278Z,9.90
2017-10-23T17:00:55.815Z,9.90
2017-10-23T17:03:24.144Z,9.80
2017-10-23T17:05:51.679Z,9.80
2017-10-23T17:08:19.236Z,9.90
2017-10-23T17:10:46.780Z,9.80
2017-10-23T17:13:15.114Z,9.80
2017-10-23T17:15:42.666Z,9.80
2017-10-23T17:18:10.231Z,9.80
2017-10-23T17:20:37.770Z,9.80
2017-10-23T17:23:05.331Z,9.80
2017-10-23T17:25:32.868Z,9.90
2017-10-23T17:28:00.450Z,9.80
2017-10-23T17:30:27.979Z,9.80
2017-10-23T17:32:56.275Z,9.80
2017-10-23T17:35:23.844Z,9.80
2017-10-23T17:37:51.387Z,9.80
2017-10-23T17:40:18.968Z,9.80
2017-10-23T17:42:46.510Z,9.80
2017-10-23T17:45:14.094Z,9.80
2017-10-23T17:47:41.633Z,9.80
2017-10-23T17:50:09.195Z,9.90
2017-10-23T17:52:36.730Z,9.80
2017-10-23T17:55:05.047Z,9.90
2017-10-23T17:57:32.576Z,9.90
2017-10-23T18:00:00.160Z,9.90
2017-10-23T18:02:27.868Z,9.80
2017-10-23T18:04:55.504Z,9.90
2017-10-23T18:07:23.039Z,9.80
2017-10-23T18:09:50.635Z,9.80
2017-10-23T18:12:18.179Z,9.80
2017-10-23T18:14:46.023Z,9.80
2017-10-23T18:17:13.558Z,9.80
2017-10-23T18:19:42.002Z,9.80
2017-10-23T18:22:09.548Z,9.80
2017-10-23T18:24:37.112Z,9.80
2017-10-23T18:27:04.653Z,9.80
2017-10-23T18:29:32.227Z,9.80
2017-10-23T18:31:59.765Z,9.90
2017-10-23T18:34:28.100Z,9.80
2017-10-23T18:36:56.422Z,9.80
2017-10-23T18:39:23.991Z,9.80
2017-10-23T18:41:51.540Z,9.80
2017-10-23T18:44:19.103Z,9.80
2017-10-23T18:46:46.643Z,9.90
2017-10-23T18:49:14.187Z,9.80
2017-10-23T18:51:42.521Z,9.80
2017-10-23T18:54:10.068Z,9.80
2017-10-23T18:56:37.634Z,9.80
2017-10-23T18:59:05.176Z,9.80
2017-10-23T19:01:32.740Z,9.90
2017-10-23T19:04:00.280Z,9.90
2017-10-23T19:06:27.847Z,9.90
2017-10-23T19:08:55.389Z,9.90
2017-10-23T19:11:23.751Z,9.90
2017-10-23T19:13:52.067Z,9.90
2017-10-23T19:16:19.660Z,9.90
2017-10-23T19:18:47.199Z,9.90
2017-10-23T19:21:14.757Z,9.90
2017-10-23T19:23:42.298Z,9.90
2017-10-23T19:26:09.863Z,9.90
2017-10-23T19:28:37.391Z,9.90
2017-10-23T19:31:05.732Z,9.90
2017-10-23T19:33:33.272Z,9.90
2017-10-23T19:36:00.928Z,9.90
2017-10-23T19:38:28.463Z,10.00
2017-10-23T19:40:56.791Z,9.90
2017-10-23T19:43:24.327Z,9.90
2017-10-23T19:45:51.887Z,9.90
2017-10-23T19:48:19.428Z,9.90
2017-10-23T19:50:46.992Z,9.90
2017-10-23T19:53:14.532Z,9.90
2017-10-23T19:55:42.860Z,9.90
2017-10-23T19:58:10.400Z,9.90
2017-10-23T20:00:37.978Z,10.00
2017-10-23T20:03:05.539Z,10.00
2017-10-23T20:05:33.118Z,10.00
2017-10-23T20:08:00.656Z,9.90
2017-10-23T20:10:28.196Z,9.90
2017-10-23T20:12:55.761Z,10.00
2017-10-23T20:15:23.304Z,10.00
2017-10-23T20:17:50.881Z,10.00
2017-10-23T20:20:18.429Z,10.00
2017-10-23T20:22:46.000Z,10.00
2017-10-23T20:25:13.539Z,10.00
2017-10-23T20:27:41.111Z,10.00
2017-10-23T20:30:08.646Z,10.00
2017-10-23T20:32:36.976Z,10.00
2017-10-23T20:35:04.521Z,10.00
2017-10-23T20:37:32.296Z,9.90
2017-10-23T20:39:59.843Z,10.00
2017-10-23T20:42:27.413Z,10.00
2017-10-23T20:44:54.966Z,10.00
2017-10-23T20:47:22.533Z,10.00
2017-10-23T20:49:50.074Z,10.00
2017-10-23T20:52:17.640Z,10.00
2017-10-23T20:54:45.193Z,10.00
2017-10-23T20:57:12.755Z,10.00
2017-10-23T20:59:40.308Z,10.00
2017-10-23T21:02:07.894Z,10.00
2017-10-23T21:04:36.207Z,10.00
2017-10-23T21:07:03.756Z,10.00
2017-10-23T21:09:31.335Z,10.00
2017-10-23T21:11:58.869Z,10.00
2017-10-23T21:14:26.443Z,10.00
2017-10-23T21:16:54.008Z,10.00
2017-10-23T21:19:21.580Z,10.00
2017-10-23T21:21:49.906Z,10.00
2017-10-23T21:24:17.479Z,10.00
2017-10-23T21:26:45.028Z,10.00
2017-10-23T21:29:12.600Z,10.00
2017-10-23T21:31:40.148Z,10.00
2017-10-23T21:34:07.721Z,10.00
2017-10-23T21:36:35.268Z,10.00
2017-10-23T21:39:02.843Z,10.00
2017-10-23T21:41:30.387Z,10.00
2017-10-23T21:43:57.952Z,10.00
2017-10-23T21:46:37.419Z,9.90
2017-10-23T21:49:04.991Z,9.90
2017-10-23T21:51:32.523Z,9.90
2017-10-23T21:54:00.079Z,9.90
2017-10-23T21:56:27.627Z,9.90
2017-10-23T21:58:55.202Z,9.90
2017-10-23T22:01:22.780Z,9.90
2017-10-23T22:03:50.364Z,9.90
2017-10-23T22:06:18.670Z,9.90
2017-10-23T22:08:46.220Z,9.90
2017-10-23T22:11:13.779Z,9.90
2017-10-23T22:13:41.320Z,9.90
2017-10-23T22:16:09.668Z,9.90
2017-10-23T22:18:37.210Z,9.90
2017-10-23T22:21:04.775Z,9.90
2017-10-23T22:23:32.308Z,9.90
2017-10-23T22:25:59.875Z,9.90
2017-10-23T22:28:28.175Z,9.90
2017-10-23T22:52:06.619Z,10.00
2017-10-23T22:54:35.163Z,9.90
2017-10-23T22:57:03.495Z,10.00
2017-10-23T22:59:31.031Z,10.00
2017-10-23T23:01:58.605Z,10.00
2017-10-23T23:04:26.229Z,10.00
2017-10-23T23:06:53.799Z,10.00
2017-10-23T23:09:21.347Z,10.00
2017-10-23T23:11:49.698Z,10.00
2017-10-23T23:14:17.235Z,9.90
2017-10-23T23:16:44.800Z,10.00
2017-10-23T23:19:12.347Z,10.00
2017-10-23T23:21:48.215Z,10.00
2017-10-23T23:24:15.764Z,10.00
2017-10-23T23:26:53.512Z,10.00
2017-10-23T23:29:21.826Z,10.10
2017-10-23T23:31:49.387Z,10.10
2017-10-23T23:34:16.934Z,10.10
2017-10-23T23:36:44.506Z,10.10
2017-10-23T23:39:12.054Z,10.10
2017-10-23T23:41:39.625Z,10.10
2017-10-23T23:44:07.175Z,10.10
2017-10-23T23:46:34.735Z,10.00
2017-10-23T23:49:02.282Z,10.00
2017-10-23T23:51:29.846Z,10.10
2017-10-23T23:53:57.399Z,10.00
2017-10-23T23:56:24.969Z,10.10
2017-10-23T23:58:52.507Z,10.10
